John Murtha Johnstown Cambria County Airport
KJST : now visible

Airfield :











YOU CAN JOIN US ON...

 
LOGIN :

Register | Disclaimer

   EN    FR    IT 

 









Legend :    VFR   Marginal VFR   IFR   Intensive IFR   Very Intensive IFR
Visi :
Ceiling :
>= 8 km
>= 3000ft
5 to 8 km
1000 to 3000 ft
1500m to 5 km
500 to 1000 ft
800 to 1500m
200 to 500 ft
< 800m
< 200 ft
Symbols :   Thunderstorms  Fog  Heavy snow  Heavy precipitations  Wind > 20 kt






- Airport Elevation : 2284 ft
- IATA code : JST


KJST - John Murtha Johnstown Cambria County

CURRENT METAR :
  • 110254Z AUTO 17005KT 10SM CLR 23/13 A3006 RMK AO2 SLP161 T02280133 50008

EXPIRED METARs :
  • 110154Z AUTO 19005KT 10SM CLR 24/13 A3007 RMK AO2 SLP165 T02440133
  • 110054Z AUTO 17007KT 10SM CLR 24/14 A3005 RMK AO2 SLP159 T02390139

TAF KJST
Valid from the 11 at 03:00 until the 12 at 00:00 UTC


110322Z 1103/1124 17005KT P6SM SKC
FM111800 24008KT P6SM VCTS BKN050CB
FM112100 24007KT P6SM SCT050
KZOB FIR / North America



MET'MAP, your aeronautical weather chart ! - Copyright ORBIFLY December 2007 - Disclaimer

ORBIFLY MET'MAP TEAM :

Programming & Development : Alexandra Zaïnal
Concept & original design : Baudouin d'Aumeries
Assistance for programming : Marc-Olivier Méhu
Technical & hardware support : Manuel Goepfert

Contact : metmap@orbifly.com




SOURCES & CREDITS :

   NOAA       Earth
Advisory